Time;durP1;ratioP1;P1;durP2;ratioP2;P2;SDS_P1;SDS_P2;PMS_P1;PMS_P2;Temp;Humidity;BMP_temperature;BMP_pressure;BME280_temperature;BME280_humidity;BME280_pressure;Samples;Min_cycle;Max_cycle;Signal;HPM_P1;HPM_P2
2021/09/16 00:01:47;;;;;;;5.78;4.72;;;;;;;19.19;77.96;100231.66;4901660;28;124500;-59
2021/09/16 00:04:13;;;;;;;6.63;4.45;;;;;;;19.20;78.35;100235.97;4902015;28;98073;-60
2021/09/16 00:06:39;;;;;;;6.53;5.28;;;;;;;19.21;78.22;100243.03;4901172;28;126015;-61
2021/09/16 00:09:05;;;;;;;9.43;5.10;;;;;;;19.21;78.54;100237.56;4900211;28;110250;-59
2021/09/16 00:11:31;;;;;;;5.85;4.47;;;;;;;19.22;78.49;100235.66;4901746;28;97917;-61
2021/09/16 00:13:57;;;;;;;7.32;4.90;;;;;;;19.23;78.50;100240.78;4903128;28;98080;-59
2021/09/16 00:16:23;;;;;;;6.45;4.75;;;;;;;19.24;78.64;100234.19;4902069;28;98387;-59
2021/09/16 00:18:49;;;;;;;5.90;5.30;;;;;;;19.24;78.67;100231.47;4884052;28;106030;-60
2021/09/16 00:21:15;;;;;;;5.70;4.72;;;;;;;19.24;78.57;100231.47;4900958;28;127263;-59
2021/09/16 00:23:44;;;;;;;5.40;4.90;;;;;;;19.25;78.78;100233.06;4902123;28;116595;-59
2021/09/16 00:26:10;;;;;;;5.22;4.65;;;;;;;19.24;79.02;100227.94;4903195;28;97979;-60
2021/09/16 00:28:36;;;;;;;5.60;5.07;;;;;;;19.25;78.91;100235.00;4899194;28;127782;-59
2021/09/16 00:31:02;;;;;;;6.20;5.57;;;;;;;19.25;79.37;100229.53;4899158;28;127966;-59
2021/09/16 00:33:28;;;;;;;7.18;5.90;;;;;;;19.24;78.98;100230.66;4902819;28;97726;-59
2021/09/16 00:35:54;;;;;;;6.10;5.50;;;;;;;19.24;79.05;100233.41;4901317;28;127718;-61
2021/09/16 00:38:20;;;;;;;5.30;4.65;;;;;;;19.23;78.98;100238.06;4867938;28;106422;-59
2021/09/16 00:40:46;;;;;;;4.88;4.38;;;;;;;19.23;79.02;100238.06;4900378;28;126682;-59
2021/09/16 00:43:12;;;;;;;4.90;4.50;;;;;;;19.23;79.11;100242.72;4901387;28;116159;-61
2021/09/16 00:45:38;;;;;;;4.85;4.45;;;;;;;19.20;78.93;100244.19;4900488;28;109242;-61
2021/09/16 00:48:04;;;;;;;5.47;4.60;;;;;;;19.22;79.06;100241.94;4883271;28;127938;-59
2021/09/16 00:50:30;;;;;;;5.85;4.95;;;;;;;19.19;79.43;100242.59;4901391;28;111817;-61
2021/09/16 00:52:56;;;;;;;5.70;4.80;;;;;;;19.18;79.30;100242.91;4900679;28;117666;-59
2021/09/16 00:55:23;;;;;;;6.72;5.32;;;;;;;19.17;79.29;100253.03;4867378;28;126419;-59
2021/09/16 00:57:53;;;;;;;6.50;5.07;;;;;;;19.15;79.28;100249.84;4899498;28;98494;-59
2021/09/16 01:00:20;;;;;;;7.25;5.25;;;;;;;19.15;79.39;100249.03;4901236;28;98540;-59
2021/09/16 01:02:46;;;;;;;5.03;4.53;;;;;;;19.15;79.36;100249.84;4901661;28;97830;-59
2021/09/16 01:05:12;;;;;;;5.03;4.43;;;;;;;19.16;79.33;100247.91;4900979;28;127241;-59
2021/09/16 01:07:39;;;;;;;5.55;5.00;;;;;;;19.15;79.18;100247.09;4902225;28;98145;-59
2021/09/16 01:10:08;;;;;;;5.97;4.97;;;;;;;19.15;79.31;100247.09;4901468;28;98315;-61
2021/09/16 01:12:35;;;;;;;6.40;5.43;;;;;;;19.15;79.31;100249.84;4901310;28;97691;-63
2021/09/16 01:15:01;;;;;;;6.72;5.25;;;;;;;19.15;79.71;100244.38;4900163;28;119027;-61
2021/09/16 01:17:27;;;;;;;7.63;5.63;;;;;;;19.15;79.62;100249.03;4903607;28;128504;-62
2021/09/16 01:19:53;;;;;;;7.15;6.22;;;;;;;19.15;79.38;100249.03;4904783;28;126538;-59
2021/09/16 01:22:21;;;;;;;7.78;5.63;;;;;;;19.13;79.63;100243.88;4902165;28;98666;-61
2021/09/16 01:24:47;;;;;;;8.23;5.05;;;;;;;19.13;79.72;100243.88;4905457;28;98136;-59
2021/09/16 01:27:13;;;;;;;6.72;5.57;;;;;;;19.15;79.62;100249.03;4903898;28;128313;-59
2021/09/16 01:29:40;;;;;;;8.27;5.53;;;;;;;19.13;79.79;100250.16;4904139;28;127655;-63
2021/09/16 01:32:07;;;;;;;6.40;5.50;;;;;;;19.12;79.90;100256.75;4904072;28;118544;-59
2021/09/16 01:34:33;;;;;;;7.65;6.20;;;;;;;19.13;79.76;100257.56;4904628;28;108707;-59
2021/09/16 01:36:59;;;;;;;7.80;6.65;;;;;;;19.12;79.92;100250.50;4904812;28;102017;-61
2021/09/16 01:39:25;;;;;;;7.18;6.35;;;;;;;19.10;79.92;100250.03;4904177;28;116732;-61
2021/09/16 01:41:51;;;;;;;8.45;6.60;;;;;;;19.07;80.05;100253.41;4904420;28;97977;-61
2021/09/16 01:44:18;;;;;;;9.27;6.82;;;;;;;19.04;80.01;100248.59;4904205;28;115380;-59
2021/09/16 01:46:44;;;;;;;7.90;7.20;;;;;;;19.04;79.84;100251.34;4903774;28;119183;-62
2021/09/16 01:49:10;;;;;;;10.80;8.20;;;;;;;19.03;80.02;100247.81;4904960;28;98219;-59
2021/09/16 01:51:36;;;;;;;8.65;7.72;;;;;;;19.00;80.00;100251.19;4903945;28;114778;-61
2021/09/16 01:54:03;;;;;;;7.50;6.70;;;;;;;18.98;80.08;100256.19;4901825;28;128076;-59
2021/09/16 01:56:29;;;;;;;7.70;6.90;;;;;;;18.98;80.15;100260.84;4903568;28;120564;-61
2021/09/16 01:58:55;;;;;;;7.95;6.88;;;;;;;18.98;80.15;100261.66;4902293;28;97847;-59
2021/09/16 02:01:21;;;;;;;8.30;7.50;;;;;;;18.98;80.19;100255.38;4904540;28;97980;-61
2021/09/16 02:03:48;;;;;;;8.10;7.30;;;;;;;18.98;80.25;100258.09;4903321;28;125866;-62
2021/09/16 02:06:14;;;;;;;8.60;7.57;;;;;;;18.97;80.16;100267.44;4904627;28;98375;-62
2021/09/16 02:08:40;;;;;;;9.05;7.22;;;;;;;18.98;79.96;100260.84;4903257;28;97893;-59
2021/09/16 02:11:07;;;;;;;9.02;7.57;;;;;;;18.97;80.33;100257.31;4903626;28;97927;-61
2021/09/16 02:13:33;;;;;;;10.27;7.88;;;;;;;18.97;80.19;100257.31;4902710;28;98821;-59
2021/09/16 02:15:59;;;;;;;8.82;7.78;;;;;;;18.97;79.88;100254.56;4904004;28;127672;-61
2021/09/16 02:18:25;;;;;;;10.65;8.48;;;;;;;18.97;80.24;100259.25;4904178;28;98219;-61
2021/09/16 02:20:51;;;;;;;9.45;7.72;;;;;;;18.96;79.67;100261.19;4903429;28;116001;-61
2021/09/16 02:23:17;;;;;;;9.82;8.90;;;;;;;18.96;80.01;100257.66;4903075;28;125709;-59
2021/09/16 02:25:43;;;;;;;9.40;8.40;;;;;;;18.93;79.92;100250.09;4904224;28;97787;-59
2021/09/16 02:28:09;;;;;;;10.63;9.57;;;;;;;18.93;79.98;100259.09;4903515;28;101994;-59
2021/09/16 02:30:35;;;;;;;10.05;8.00;;;;;;;18.92;80.19;100262.16;4903538;28;117835;-59
2021/09/16 02:33:04;;;;;;;9.77;8.63;;;;;;;18.93;80.29;100266.50;4902674;28;128101;-61
2021/09/16 02:35:31;;;;;;;9.63;7.80;;;;;;;18.93;80.11;100267.28;4904122;28;98220;-59
2021/09/16 02:37:58;;;;;;;9.80;8.48;;;;;;;18.93;79.85;100271.94;4903558;28;97891;-59
2021/09/16 02:40:24;;;;;;;9.68;8.68;;;;;;;18.92;80.10;100262.97;4902036;28;99298;-59
2021/09/16 02:42:50;;;;;;;10.98;8.27;;;;;;;18.92;79.92;100265.69;4902543;28;127826;-59
2021/09/16 02:45:16;;;;;;;10.20;9.20;;;;;;;18.92;80.64;100270.34;4902707;28;127648;-59
2021/09/16 02:47:42;;;;;;;9.02;8.13;;;;;;;18.92;79.61;100270.34;4903209;28;105732;-59
2021/09/16 02:50:09;;;;;;;10.15;9.02;;;;;;;18.91;80.12;100275.03;4902188;28;106970;-59
2021/09/16 02:52:35;;;;;;;10.73;9.15;;;;;;;18.89;80.19;100275.34;4902569;28;119312;-61
2021/09/16 02:55:01;;;;;;;10.63;9.32;;;;;;;18.91;80.54;100271.50;4903836;28;99368;-61
2021/09/16 02:57:27;;;;;;;13.57;10.52;;;;;;;18.90;80.33;100276.13;4902761;28;121724;-61
2021/09/16 02:59:53;;;;;;;9.68;8.77;;;;;;;18.89;80.20;100274.53;4902118;28;120295;-61
2021/09/16 03:02:19;;;;;;;11.43;10.13;;;;;;;18.89;80.17;100278.06;4901993;28;118116;-61
2021/09/16 03:04:45;;;;;;;11.20;9.45;;;;;;;18.89;80.08;100267.13;4902358;28;127710;-61
2021/09/16 03:07:11;;;;;;;11.90;9.43;;;;;;;18.91;80.46;100269.56;4902570;28;126255;-60
2021/09/16 03:09:37;;;;;;;10.40;9.30;;;;;;;18.91;80.13;100268.75;4902912;28;117062;-61
2021/09/16 03:12:04;;;;;;;10.70;9.60;;;;;;;18.91;80.20;100274.22;4902391;28;127230;-61
2021/09/16 03:14:30;;;;;;;12.23;10.15;;;;;;;18.91;79.60;100287.88;4903203;28;112929;-61
2021/09/16 03:16:56;;;;;;;11.70;8.77;;;;;;;18.91;79.89;100276.94;4902337;28;126630;-61
2021/09/16 03:19:22;;;;;;;9.85;8.73;;;;;;;18.92;80.14;100284.81;4902932;28;116644;-61
2021/09/16 03:21:48;;;;;;;11.00;9.57;;;;;;;18.91;80.22;100282.41;4900450;28;127947;-63
2021/09/16 03:24:14;;;;;;;13.27;10.20;;;;;;;18.90;80.21;100278.84;4900886;28;126780;-62
2021/09/16 03:26:40;;;;;;;14.73;11.60;;;;;;;18.89;80.00;100278.06;4884297;28;126944;-61
2021/09/16 03:29:06;;;;;;;15.60;12.73;;;;;;;18.90;80.08;100289.78;4900869;28;117334;-62
2021/09/16 03:31:32;;;;;;;12.88;11.50;;;;;;;18.88;80.14;100287.38;4884000;28;127679;-61
2021/09/16 03:33:58;;;;;;;13.80;11.48;;;;;;;18.89;79.93;100288.97;4901851;28;127901;-61
2021/09/16 03:36:24;;;;;;;12.18;10.98;;;;;;;18.87;80.19;100285.78;4901497;28;127355;-59
2021/09/16 03:38:50;;;;;;;14.02;11.30;;;;;;;18.87;80.18;100282.28;4899580;28;107714;-61
2021/09/16 03:41:16;;;;;;;12.23;11.02;;;;;;;18.87;79.63;100283.06;4901923;28;125985;-61
2021/09/16 03:43:42;;;;;;;13.90;12.45;;;;;;;18.87;79.87;100277.59;4903180;28;100756;-59
2021/09/16 03:46:08;;;;;;;15.02;12.68;;;;;;;18.88;79.89;100283.84;4901770;28;127407;-59
2021/09/16 03:48:34;;;;;;;14.98;12.05;;;;;;;18.87;80.55;100291.25;4902203;28;118652;-61
2021/09/16 03:51:00;;;;;;;15.30;13.25;;;;;;;18.87;80.11;100279.53;4916792;28;127364;-61
2021/09/16 03:53:26;;;;;;;15.45;13.23;;;;;;;18.88;80.01;100283.84;4900309;28;127635;-63
2021/09/16 03:55:52;;;;;;;15.57;13.75;;;;;;;18.86;79.67;100284.19;4901363;28;126278;-59
2021/09/16 03:58:18;;;;;;;16.13;14.40;;;;;;;18.86;79.85;100281.47;4902024;28;115993;-59
2021/09/16 04:00:44;;;;;;;16.35;14.13;;;;;;;18.86;79.80;100275.19;4901685;28;126790;-59
2021/09/16 04:03:11;;;;;;;19.95;17.00;;;;;;;18.85;79.73;100268.94;4899943;28;127151;-59
2021/09/16 04:05:39;;;;;;;17.67;15.77;;;;;;;18.83;79.79;100278.59;4901399;28;127692;-59
2021/09/16 04:08:05;;;;;;;18.50;16.60;;;;;;;18.81;79.80;100292.53;4902175;28;101308;-61
2021/09/16 04:10:31;;;;;;;19.90;17.30;;;;;;;18.81;79.39;100298.00;4883812;28;98365;-61
2021/09/16 04:12:57;;;;;;;19.95;16.73;;;;;;;18.79;79.87;100294.03;4901863;28;119890;-61
2021/09/16 04:15:24;;;;;;;18.42;16.35;;;;;;;18.80;79.50;100306.53;4902177;28;98925;-61
2021/09/16 04:17:50;;;;;;;21.02;17.73;;;;;;;18.79;79.59;100296.75;4902074;28;104723;-59
2021/09/16 04:20:16;;;;;;;19.70;17.40;;;;;;;18.78;79.50;100295.94;4902447;28;99199;-62
2021/09/16 04:22:42;;;;;;;20.17;17.20;;;;;;;18.79;79.57;100300.28;4901784;28;104674;-59
2021/09/16 04:25:08;;;;;;;18.83;16.83;;;;;;;18.78;79.39;100301.38;4901016;28;125749;-61
2021/09/16 04:27:34;;;;;;;19.50;17.38;;;;;;;18.77;79.31;100310.72;4883456;28;103248;-59
2021/09/16 04:30:00;;;;;;;22.15;19.52;;;;;;;18.77;79.47;100302.53;4901239;28;108367;-59
2021/09/16 04:32:26;;;;;;;22.65;19.83;;;;;;;18.77;79.37;100309.91;4900623;28;127976;-63
2021/09/16 04:34:52;;;;;;;20.83;18.45;;;;;;;18.76;79.34;100305.59;4901303;28;126946;-61
2021/09/16 04:37:18;;;;;;;21.42;19.20;;;;;;;18.77;79.40;100307.19;4901876;28;109254;-61
2021/09/16 04:39:45;;;;;;;21.92;19.05;;;;;;;18.76;79.45;100309.13;4901364;28;125801;-61
2021/09/16 04:42:11;;;;;;;22.17;19.77;;;;;;;18.77;79.39;100309.91;4901224;28;128721;-61
2021/09/16 04:44:37;;;;;;;21.98;19.05;;;;;;;18.76;79.14;100308.31;4901763;28;125500;-61
2021/09/16 04:47:03;;;;;;;27.40;22.33;;;;;;;18.78;79.44;100312.31;4902641;28;97966;-59
2021/09/16 04:49:29;;;;;;;23.23;20.70;;;;;;;18.84;79.36;100313.75;4901694;28;102313;-61
2021/09/16 04:51:55;;;;;;;24.33;20.95;;;;;;;18.89;79.01;100316.28;4901237;28;128091;-61
2021/09/16 04:54:21;;;;;;;24.23;20.55;;;;;;;18.96;78.98;100328.66;4901366;28;125210;-61
2021/09/16 04:56:47;;;;;;;23.25;20.75;;;;;;;18.99;78.77;100325.28;4899111;28;117710;-59
2021/09/16 04:59:13;;;;;;;25.95;21.27;;;;;;;19.04;78.57;100330.56;4901289;28;127536;-62
2021/09/16 05:01:39;;;;;;;24.48;21.83;;;;;;;19.06;78.69;100334.56;4898702;28;126562;-59
2021/09/16 05:04:05;;;;;;;24.75;21.63;;;;;;;19.09;78.53;100333.09;4900651;28;124930;-63
2021/09/16 05:06:31;;;;;;;24.83;21.77;;;;;;;19.09;78.39;100350.28;4898760;28;117730;-61
2021/09/16 05:08:57;;;;;;;27.50;23.65;;;;;;;19.14;78.16;100346.59;4899518;28;128059;-60
2021/09/16 05:11:24;;;;;;;23.75;21.17;;;;;;;19.13;78.23;100344.97;4901643;28;115982;-63
2021/09/16 05:13:50;;;;;;;25.50;22.58;;;;;;;19.16;78.26;100354.44;4902348;28;97866;-62
2021/09/16 05:16:16;;;;;;;24.77;21.80;;;;;;;19.16;77.88;100347.03;4901234;28;116002;-62
2021/09/16 05:18:42;;;;;;;24.42;21.55;;;;;;;19.18;78.37;100363.09;4898674;28;126891;-62
2021/09/16 05:21:09;;;;;;;25.73;21.60;;;;;;;19.19;78.46;100367.47;4899035;28;128641;-62
2021/09/16 05:23:35;;;;;;;24.60;21.65;;;;;;;19.20;77.98;100363.59;4899754;28;98174;-62
2021/09/16 05:26:01;;;;;;;27.27;23.13;;;;;;;19.19;77.76;100362.78;4901021;28;98373;-60
2021/09/16 05:28:28;;;;;;;26.17;22.95;;;;;;;19.22;77.81;100367.59;4902019;28;98259;-60
2021/09/16 05:30:54;;;;;;;31.08;26.15;;;;;;;19.23;77.76;100368.41;4901284;28;99851;-60
2021/09/16 05:33:20;;;;;;;31.50;26.10;;;;;;;19.23;77.32;100371.13;4900052;28;128188;-61
2021/09/16 05:35:46;;;;;;;30.60;25.70;;;;;;;19.23;77.36;100371.13;4900927;28;97675;-59
2021/09/16 05:38:12;;;;;;;32.20;27.27;;;;;;;19.22;77.61;100373.06;4898559;28;126830;-59
2021/09/16 05:40:38;;;;;;;30.60;26.20;;;;;;;19.24;77.29;100378.19;4898488;28;117619;-59
2021/09/16 05:43:04;;;;;;;31.85;27.25;;;;;;;19.29;77.08;100386.22;4900508;28;125087;-59
2021/09/16 05:45:30;;;;;;;29.92;25.17;;;;;;;19.31;76.81;100381.22;4882919;28;98166;-61
2021/09/16 05:47:57;;;;;;;31.60;26.90;;;;;;;19.33;76.83;100389.88;4899147;28;98475;-59
2021/09/16 05:50:23;;;;;;;32.30;27.10;;;;;;;19.32;77.20;100382.81;4897954;28;126761;-62
2021/09/16 05:52:49;;;;;;;28.48;24.95;;;;;;;19.33;77.20;100379.75;4900288;28;128105;-61
2021/09/16 05:55:15;;;;;;;32.78;26.45;;;;;;;19.33;76.82;100382.47;4901100;28;98373;-59
2021/09/16 05:57:41;;;;;;;35.40;28.38;;;;;;;19.35;76.76;100385.72;4899835;28;127137;-59
2021/09/16 06:00:08;;;;;;;30.98;27.55;;;;;;;19.36;76.65;100384.56;4900087;28;127105;-63
2021/09/16 06:02:34;;;;;;;33.05;27.67;;;;;;;19.38;76.58;100387.00;4883892;28;114140;-59
2021/09/16 06:05:01;;;;;;;34.22;27.95;;;;;;;19.38;76.70;100389.72;4885871;28;97725;-62
2021/09/16 06:07:27;;;;;;;31.77;28.27;;;;;;;19.36;76.76;100391.97;4883396;28;128718;-61
2021/09/16 06:09:53;;;;;;;32.25;26.92;;;;;;;19.33;76.62;100387.16;4885129;28;127997;-62
2021/09/16 06:12:19;;;;;;;36.28;29.27;;;;;;;19.29;77.10;100381.53;4903125;28;126106;-59
2021/09/16 06:14:46;;;;;;;37.25;29.42;;;;;;;19.26;76.66;100386.88;4905738;28;97849;-59
2021/09/16 06:17:12;;;;;;;31.98;27.27;;;;;;;19.22;76.42;100389.47;4904332;28;98022;-61
2021/09/16 06:19:38;;;;;;;33.08;28.00;;;;;;;19.20;76.63;100402.63;4908552;28;98658;-59
2021/09/16 06:22:05;;;;;;;36.67;28.75;;;;;;;19.19;76.76;100400.25;4901695;28;97933;-61
2021/09/16 06:24:31;;;;;;;33.17;28.80;;;;;;;19.18;76.56;100402.19;4904728;28;97745;-61
2021/09/16 06:26:57;;;;;;;39.08;32.20;;;;;;;19.18;76.56;100404.91;4902330;28;128829;-59
2021/09/16 06:29:23;;;;;;;34.22;29.92;;;;;;;19.25;76.46;100409.84;4903227;28;117643;-59
2021/09/16 06:31:49;;;;;;;33.17;28.30;;;;;;;19.27;76.29;100402.13;4903590;28;98191;-62
2021/09/16 06:34:15;;;;;;;30.85;27.50;;;;;;;19.32;76.17;100399.22;4903425;28;117254;-59
2021/09/16 06:36:41;;;;;;;36.15;30.80;;;;;;;19.35;76.36;100406.78;4917441;28;98349;-59
2021/09/16 06:39:07;;;;;;;35.08;29.48;;;;;;;19.38;75.87;100408.84;4903495;28;98822;-59
2021/09/16 06:41:34;;;;;;;32.78;28.13;;;;;;;19.43;75.56;100411.41;4902435;28;127514;-59
2021/09/16 06:44:00;;;;;;;32.15;28.30;;;;;;;19.57;75.08;100416.63;4903360;28;98049;-61
2021/09/16 06:46:26;;;;;;;34.83;28.83;;;;;;;19.79;74.55;100408.19;4903213;28;126768;-60
2021/09/16 06:48:52;;;;;;;32.25;27.38;;;;;;;19.97;74.10;100419.03;4903180;28;123820;-61
2021/09/16 06:51:18;;;;;;;31.55;26.13;;;;;;;20.12;73.68;100423.91;4903965;28;98332;-59
2021/09/16 06:53:44;;;;;;;28.80;25.65;;;;;;;20.25;73.03;100428.34;4903364;28;118030;-61
2021/09/16 06:56:10;;;;;;;29.15;24.80;;;;;;;20.24;73.42;100429.47;4902503;28;126737;-60
2021/09/16 06:58:36;;;;;;;29.98;24.83;;;;;;;20.25;72.62;100433.81;4903689;28;98652;-60
2021/09/16 07:01:02;;;;;;;26.42;23.48;;;;;;;20.23;72.83;100440.75;4900455;28;128357;-62
2021/09/16 07:03:28;;;;;;;25.20;22.50;;;;;;;20.21;72.91;100446.56;4902629;28;119234;-59
2021/09/16 07:05:54;;;;;;;25.80;23.02;;;;;;;20.26;72.70;100448.28;4901226;28;126851;-63
2021/09/16 07:08:20;;;;;;;24.30;21.73;;;;;;;20.27;72.42;100447.94;4885127;28;117568;-60
2021/09/16 07:10:46;;;;;;;26.00;22.75;;;;;;;20.30;72.62;100451.97;4902755;28;106920;-61
2021/09/16 07:13:12;;;;;;;25.20;21.80;;;;;;;20.37;72.17;100449.50;4902245;28;98128;-62
2021/09/16 07:15:38;;;;;;;21.33;18.80;;;;;;;20.38;71.86;100453.84;4868734;28;128477;-59
2021/09/16 07:18:04;;;;;;;24.33;20.08;;;;;;;20.39;71.48;100454.63;4902421;28;128133;-62
2021/09/16 07:20:30;;;;;;;20.77;17.77;;;;;;;20.36;71.03;100453.38;4902429;28;125837;-61
2021/09/16 07:22:56;;;;;;;19.80;17.60;;;;;;;20.34;71.11;100458.38;4901721;28;97975;-61
2021/09/16 07:25:22;;;;;;;20.08;17.92;;;;;;;20.30;71.09;100452.75;4902022;28;128051;-61
2021/09/16 07:27:48;;;;;;;19.45;16.70;;;;;;;20.32;71.11;100453.25;4901989;28;123354;-62
2021/09/16 07:30:15;;;;;;;17.73;15.85;;;;;;;20.46;70.35;100452.16;4900710;28;125956;-62
2021/09/16 07:32:41;;;;;;;16.10;14.07;;;;;;;20.62;69.99;100455.13;4903002;28;98110;-59
2021/09/16 07:35:07;;;;;;;15.60;13.43;;;;;;;20.64;69.97;100463.81;4902918;28;112578;-63
2021/09/16 07:37:34;;;;;;;14.40;12.95;;;;;;;20.61;69.67;100459.00;4902512;28;98863;-62
2021/09/16 07:40:00;;;;;;;14.77;12.98;;;;;;;20.56;69.61;100470.97;4902593;28;112085;-62
2021/09/16 07:42:27;;;;;;;13.63;11.77;;;;;;;;;;4903238;28;98055;-61
2021/09/16 07:44:53;;;;;;;11.70;10.50;;;;;;;20.47;69.30;100464.72;4902386;28;106764;-59
2021/09/16 07:47:19;;;;;;;11.48;10.30;;;;;;;20.42;69.45;100467.66;4902254;28;99641;-61
2021/09/16 07:49:45;;;;;;;12.07;10.88;;;;;;;20.33;69.09;100468.53;4902612;28;103864;-61
2021/09/16 07:52:12;;;;;;;11.65;9.95;;;;;;;20.23;68.93;100471.63;4902922;28;97816;-60
2021/09/16 07:54:39;;;;;;;10.43;9.20;;;;;;;20.20;68.84;100468.75;4902365;28;113111;-61
2021/09/16 07:57:05;;;;;;;10.05;8.38;;;;;;;20.10;68.71;100475.44;4902227;28;98898;-62
2021/09/16 07:59:31;;;;;;;8.65;6.80;;;;;;;19.98;68.52;100484.34;4902137;28;117448;-62
2021/09/16 08:01:57;;;;;;;7.88;7.07;;;;;;;19.87;68.70;100480.38;4901089;28;116696;-61
2021/09/16 08:04:23;;;;;;;7.95;7.07;;;;;;;19.81;69.21;100490.72;4902503;28;98135;-61
2021/09/16 08:06:49;;;;;;;9.57;7.85;;;;;;;19.81;68.88;100493.44;4901876;28;97964;-60
2021/09/16 08:09:16;;;;;;;9.40;8.07;;;;;;;19.83;69.34;100493.09;4902246;28;97861;-60
2021/09/16 08:11:42;;;;;;;10.65;7.82;;;;;;;19.78;69.34;100491.38;4901577;28;117625;-61
2021/09/16 08:14:09;;;;;;;9.10;8.20;;;;;;;19.76;69.14;100495.53;4901412;28;125806;-60
2021/09/16 08:16:35;;;;;;;8.57;7.35;;;;;;;19.77;69.16;100499.91;4901777;28;128234;-59
2021/09/16 08:19:03;;;;;;;8.30;6.38;;;;;;;19.83;69.00;100499.38;4902836;28;98045;-61
2021/09/16 08:21:29;;;;;;;8.20;7.40;;;;;;;19.97;68.70;100496.44;4902455;28;100442;-59
2021/09/16 08:23:55;;;;;;;6.65;5.75;;;;;;;20.10;67.81;100494.59;4868363;28;108516;-59
2021/09/16 08:26:22;;;;;;;5.25;4.65;;;;;;;20.25;67.43;100493.22;4884211;28;98219;-62
2021/09/16 08:28:48;;;;;;;5.68;4.15;;;;;;;20.40;67.13;100502.78;4884209;28;98088;-60
2021/09/16 08:31:14;;;;;;;4.03;3.13;;;;;;;20.58;66.03;100507.81;4901746;28;105787;-61
2021/09/16 08:33:40;;;;;;;5.28;3.00;;;;;;;20.73;65.53;100508.38;4882912;28;126345;-60
2021/09/16 08:36:06;;;;;;;4.15;2.63;;;;;;;20.91;64.91;100506.28;4900360;28;99516;-59
2021/09/16 08:38:32;;;;;;;3.92;2.20;;;;;;;20.91;64.88;100512.56;4900087;28;97969;-60
2021/09/16 08:40:58;;;;;;;3.30;2.22;;;;;;;20.88;64.92;100506.97;4883929;28;118021;-60
2021/09/16 08:43:31;;;;;;;3.10;1.80;;;;;;;20.85;64.64;100497.47;4901151;28;127917;-62
2021/09/16 08:45:57;;;;;;;;;;;;;;;20.89;65.25;100497.59;4901674;28;120080;-61
2021/09/16 08:48:24;;;;;;;3.05;1.48;;;;;;;20.79;63.73;100499.63;4883488;28;99465;-61
2021/09/16 08:50:50;;;;;;;2.92;1.83;;;;;;;20.81;63.99;100500.06;4900697;28;98045;-61
2021/09/16 08:53:22;;;;;;;2.88;1.30;;;;;;;20.82;63.85;100498.13;4900434;28;120018;-60
2021/09/16 08:55:48;;;;;;;;;;;;;;;20.82;64.65;100503.59;4902776;28;97665;-60
2021/09/16 08:58:14;;;;;;;4.15;1.40;;;;;;;20.69;64.15;100508.22;4882655;28;128095;-60
2021/09/16 09:00:40;;;;;;;3.00;1.30;;;;;;;20.62;63.95;100510.69;4883969;28;99878;-60
2021/09/16 09:03:06;;;;;;;3.08;1.23;;;;;;;20.58;63.96;100516.03;4900778;28;128767;-61
2021/09/16 09:05:32;;;;;;;2.35;1.30;;;;;;;20.59;63.57;100509.44;4883525;28;102289;-60
2021/09/16 09:08:00;;;;;;;2.25;1.73;;;;;;;20.58;63.61;100512.50;4898615;28;126056;-61
2021/09/16 09:10:46;;;;;;;3.33;1.70;;;;;;;20.57;64.19;100508.97;4884069;28;97818;-60
2021/09/16 09:13:41;;;;;;;3.00;1.77;;;;;;;20.55;64.00;100513.97;4901159;28;116724;-61
2021/09/16 09:16:09;;;;;;;4.50;2.20;;;;;;;20.56;63.68;100514.78;4901404;28;98620;-61
2021/09/16 09:18:48;;;;;;;2.50;1.75;;;;;;;20.56;64.00;100507.38;4902223;28;100247;-62
2021/09/16 09:21:15;;;;;;;3.28;1.85;;;;;;;20.58;64.04;100502.34;4901132;28;97984;-61
2021/09/16 09:23:44;;;;;;;4.38;3.03;;;;;;;20.53;63.67;100507.22;4901847;28;98400;-60
2021/09/16 09:26:21;;;;;;;4.80;2.70;;;;;;;20.45;64.21;100503.38;4900231;28;114924;-61
2021/09/16 09:28:47;;;;;;;3.65;3.30;;;;;;;20.40;63.99;100509.06;4900721;28;103293;-59
2021/09/16 09:31:22;;;;;;;3.45;3.08;;;;;;;20.31;64.52;100494.63;4899798;28;117060;-61
2021/09/16 09:33:48;;;;;;;3.20;2.88;;;;;;;20.29;65.03;100497.69;4902700;28;98069;-62
2021/09/16 09:36:18;;;;;;;4.10;3.70;;;;;;;20.22;65.04;100493.88;4903352;28;105421;-61
2021/09/16 09:39:02;;;;;;;5.20;4.50;;;;;;;20.10;65.36;100502.78;4905075;28;97915;-59
2021/09/16 09:41:35;;;;;;;5.57;4.68;;;;;;;20.04;65.31;100498.63;4904492;28;115879;-61
2021/09/16 09:44:07;;;;;;;5.95;4.30;;;;;;;19.95;65.73;100508.81;4905022;28;97918;-59
2021/09/16 09:46:42;;;;;;;5.95;5.18;;;;;;;19.89;65.55;100500.00;4919132;28;99704;-63
2021/09/16 09:49:11;;;;;;;6.20;4.80;;;;;;;19.85;66.21;100497.13;4903639;28;120188;-61
2021/09/16 09:51:55;;;;;;;7.82;5.22;;;;;;;19.82;66.17;100499.72;4904508;28;97834;-61
2021/09/16 09:54:43;;;;;;;6.32;5.40;;;;;;;19.77;66.44;100505.38;4903270;28;97835;-60
2021/09/16 09:57:13;;;;;;;10.20;5.93;;;;;;;19.75;66.44;100502.94;4903977;28;98266;-61
2021/09/16 09:59:55;;;;;;;7.45;6.68;;;;;;;19.78;66.43;100499.56;4904372;28;97972;-61
2021/09/16 10:02:27;;;;;;;7.78;7.07;;;;;;;19.81;66.31;100500.84;4899364;28;97995;-61
2021/09/16 10:04:53;;;;;;;8.10;6.20;;;;;;;19.84;66.30;100490.03;4904595;28;98303;-61
2021/09/16 10:07:31;;;;;;;7.75;6.45;;;;;;;19.98;66.13;100502.69;4885476;28;128023;-60
2021/09/16 10:09:58;;;;;;;7.97;6.93;;;;;;;20.13;66.11;100509.56;4901973;28;98349;-60
2021/09/16 10:12:24;;;;;;;8.48;7.30;;;;;;;20.24;65.50;100508.00;4904754;28;97871;-61
2021/09/16 10:14:50;;;;;;;10.07;7.80;;;;;;;20.37;65.53;100515.19;4904394;28;99168;-61
2021/09/16 10:17:16;;;;;;;8.75;7.63;;;;;;;20.41;65.26;100507.13;4903721;28;98587;-61
2021/09/16 10:19:43;;;;;;;9.13;7.75;;;;;;;20.46;65.74;100506.91;4902892;28;126379;-61
2021/09/16 10:22:10;;;;;;;9.90;8.68;;;;;;;20.48;65.28;100507.41;4903172;28;119025;-61
2021/09/16 10:24:36;;;;;;;9.30;7.85;;;;;;;20.44;65.50;100510.00;4901406;28;118247;-59
2021/09/16 10:27:02;;;;;;;9.15;8.00;;;;;;;20.39;65.58;100506.63;4902647;28;127907;-59
2021/09/16 10:29:28;;;;;;;10.07;8.23;;;;;;;20.29;65.64;100507.84;4903423;28;114963;-60
2021/09/16 10:32:06;;;;;;;8.50;7.50;;;;;;;20.11;66.10;100515.34;4903126;28;97911;-62
2021/09/16 10:34:50;;;;;;;10.68;8.23;;;;;;;19.94;66.27;100510.75;4904593;28;98216;-59
2021/09/16 10:37:18;;;;;;;11.40;8.75;;;;;;;19.77;66.79;100506.19;4904437;28;98719;-59
2021/09/16 10:39:46;;;;;;;11.30;9.50;;;;;;;19.68;67.22;100513.59;4904634;28;98001;-59
2021/09/16 10:42:12;;;;;;;15.48;9.63;;;;;;;19.59;67.76;100518.25;4902764;28;104267;-59
2021/09/16 10:44:39;;;;;;;11.10;9.98;;;;;;;19.52;67.83;100512.50;4885730;28;98451;-59
2021/09/16 10:47:15;;;;;;;11.75;9.73;;;;;;;19.46;68.09;100513.81;4902332;28;120207;-61
2021/09/16 10:49:41;;;;;;;10.95;9.85;;;;;;;19.46;68.48;100511.88;4903937;28;98105;-61
2021/09/16 10:52:09;;;;;;;10.43;9.45;;;;;;;19.44;68.74;100502.38;4903225;28;107205;-60
2021/09/16 10:55:02;;;;;;;12.00;10.80;;;;;;;19.40;68.35;100491.31;4903711;28;98128;-59
2021/09/16 10:57:38;;;;;;;11.00;9.65;;;;;;;19.37;68.29;100494.69;4914471;28;108150;-60
2021/09/16 11:00:16;;;;;;;11.63;10.20;;;;;;;19.41;68.21;100492.91;4903871;28;97876;-59
2021/09/16 11:02:43;;;;;;;11.43;9.90;;;;;;;19.55;68.32;100493.50;4931916;28;97966;-61
2021/09/16 11:05:12;;;;;;;11.95;10.75;;;;;;;19.70;67.98;100499.59;4903909;28;97802;-59
2021/09/16 11:07:38;;;;;;;11.75;9.70;;;;;;;19.69;67.87;100487.88;4903547;28;98717;-61
2021/09/16 11:10:16;;;;;;;11.77;10.48;;;;;;;19.82;67.68;100495.03;4903436;28;98081;-59
2021/09/16 11:12:46;;;;;;;10.25;9.10;;;;;;;20.12;67.66;100497.78;4903649;28;97970;-61
2021/09/16 11:15:17;;;;;;;11.18;10.07;;;;;;;20.41;66.68;100499.72;4902716;28;98881;-59